createdAt,value
2018-08-31T00:00:17.083Z,33.2
2018-08-31T00:01:18.639Z,33.7
2018-08-31T00:02:20.200Z,33.7
2018-08-31T00:03:21.765Z,33.2
2018-08-31T00:04:23.310Z,32.7
2018-08-31T00:05:24.884Z,33.2
2018-08-31T00:06:26.461Z,33.2
2018-08-31T00:07:28.032Z,33.7
2018-08-31T00:08:29.616Z,33.2
2018-08-31T00:09:31.167Z,32.3
2018-08-31T00:10:32.710Z,33.2
2018-08-31T00:11:34.276Z,32.3
2018-08-31T00:12:35.688Z,32.7
2018-08-31T00:13:37.249Z,32.7
2018-08-31T00:14:38.823Z,33.7
2018-08-31T00:15:40.387Z,32.3
2018-08-31T00:16:41.976Z,33.2
2018-08-31T00:17:43.565Z,32.7
2018-08-31T00:18:45.139Z,33.2
2018-08-31T00:19:46.644Z,32.7
2018-08-31T00:20:48.202Z,32.7
2018-08-31T00:21:49.751Z,33.2
2018-08-31T00:22:51.329Z,32.7
2018-08-31T00:23:52.888Z,32.7
2018-08-31T00:24:54.454Z,32.7
2018-08-31T00:25:56.003Z,33.2
2018-08-31T00:26:57.630Z,32.3
2018-08-31T00:27:59.035Z,32.7
2018-08-31T00:29:00.596Z,32.3
2018-08-31T00:30:02.189Z,33.2
2018-08-31T00:31:03.751Z,33.2
2018-08-31T00:32:05.312Z,33.2
2018-08-31T00:33:06.870Z,31.8
2018-08-31T00:34:08.425Z,31.8
2018-08-31T00:35:09.841Z,32.3
2018-08-31T00:36:11.409Z,32.3
2018-08-31T00:37:12.963Z,31.3
2018-08-31T00:38:14.361Z,31.3
2018-08-31T00:39:15.919Z,31.8
2018-08-31T00:40:17.323Z,30.3
2018-08-31T00:41:18.877Z,32.3
2018-08-31T00:42:20.459Z,31.3
2018-08-31T00:43:22.009Z,31.8
2018-08-31T00:44:23.577Z,31.3
2018-08-31T00:45:25.143Z,31.8
2018-08-31T00:46:26.696Z,31.8
2018-08-31T00:47:28.272Z,31.8
2018-08-31T00:48:29.828Z,31.3
2018-08-31T00:49:31.395Z,30.8
2018-08-31T00:50:32.966Z,31.8
2018-08-31T00:51:34.530Z,31.8
2018-08-31T00:52:35.935Z,31.8
2018-08-31T00:53:37.336Z,31.3
2018-08-31T00:54:38.943Z,31.3
2018-08-31T00:55:40.535Z,31.3
2018-08-31T00:56:42.088Z,31.8
2018-08-31T00:57:43.695Z,31.3
2018-08-31T00:58:45.254Z,31.3
2018-08-31T00:59:46.816Z,31.8
2018-08-31T01:00:48.375Z,31.8
2018-08-31T01:01:49.765Z,31.8
2018-08-31T01:02:51.333Z,31.3
2018-08-31T01:03:52.907Z,31.8
2018-08-31T01:04:54.475Z,31.3
2018-08-31T01:05:56.052Z,31.8
2018-08-31T01:06:57.606Z,31.3
2018-08-31T01:07:59.162Z,29.3
2018-08-31T01:09:00.556Z,28.3
2018-08-31T01:10:02.114Z,27.4
2018-08-31T01:11:03.716Z,26.9
2018-08-31T01:12:05.276Z,27.9
2018-08-31T01:13:06.858Z,28.8
2018-08-31T01:14:08.409Z,30.3
2018-08-31T01:15:09.952Z,32.3
2018-08-31T01:16:11.355Z,33.7
2018-08-31T01:17:12.903Z,35.2
2018-08-31T01:18:14.463Z,36.2
2018-08-31T01:19:16.024Z,36.7
2018-08-31T01:20:17.425Z,36.7
2018-08-31T01:21:18.994Z,37.1
2018-08-31T01:22:20.565Z,38.1
2018-08-31T01:23:22.134Z,38.1
2018-08-31T01:24:23.705Z,39.1
2018-08-31T01:25:25.266Z,39.1
2018-08-31T01:26:26.825Z,39.1
2018-08-31T01:27:28.375Z,39.6
2018-08-31T01:28:29.939Z,40.6
2018-08-31T01:29:31.488Z,40.6
2018-08-31T01:30:33.066Z,40.1
2018-08-31T01:31:34.628Z,40.6
2018-08-31T01:32:36.203Z,40.6
2018-08-31T01:33:37.772Z,41.1
2018-08-31T01:34:39.369Z,40.6
2018-08-31T01:35:40.935Z,40.6
2018-08-31T01:36:42.490Z,41.1
2018-08-31T01:37:44.061Z,41.5
2018-08-31T01:38:45.457Z,41.1
2018-08-31T01:39:47.008Z,41.1
2018-08-31T01:40:48.582Z,40.6
2018-08-31T01:41:50.143Z,40.6
2018-08-31T01:42:51.389Z,41.1
2018-08-31T01:43:52.931Z,40.1
2018-08-31T01:44:54.495Z,41.5
2018-08-31T01:45:56.046Z,41.1
2018-08-31T01:46:57.616Z,40.6
2018-08-31T01:47:59.186Z,41.5
2018-08-31T01:49:00.593Z,40.6
2018-08-31T01:50:02.167Z,41.1
2018-08-31T01:51:03.729Z,41.1
2018-08-31T01:52:05.136Z,41.1
2018-08-31T01:53:06.691Z,41.5
2018-08-31T01:54:08.243Z,40.6
2018-08-31T01:55:09.681Z,41.1
2018-08-31T01:56:11.264Z,41.5
2018-08-31T01:57:12.825Z,41.5
2018-08-31T01:58:14.391Z,41.1
2018-08-31T01:59:15.952Z,40.6
2018-08-31T02:00:17.511Z,40.6
2018-08-31T02:01:19.092Z,41.1
2018-08-31T02:02:20.676Z,39.6
2018-08-31T02:03:22.252Z,40.6
2018-08-31T02:04:23.808Z,40.1
2018-08-31T02:05:25.390Z,40.6
2018-08-31T02:06:26.818Z,41.5
2018-08-31T02:07:28.212Z,40.1
2018-08-31T02:08:29.778Z,41.5
2018-08-31T02:09:31.360Z,41.1
2018-08-31T02:10:32.963Z,40.6
2018-08-31T02:11:34.546Z,41.1
2018-08-31T02:12:36.105Z,40.6
2018-08-31T02:13:37.656Z,40.6
2018-08-31T02:14:39.217Z,40.6
2018-08-31T02:15:40.785Z,40.6
2018-08-31T02:16:42.177Z,40.6
2018-08-31T02:17:43.720Z,40.6
2018-08-31T02:18:45.126Z,39.6
2018-08-31T02:19:46.719Z,40.1
2018-08-31T02:20:48.354Z,40.6
2018-08-31T02:21:49.765Z,40.6
2018-08-31T02:22:51.172Z,40.1
2018-08-31T02:23:52.574Z,40.6
2018-08-31T02:24:54.137Z,39.6
2018-08-31T02:25:55.686Z,40.1
2018-08-31T02:26:57.252Z,39.1
2018-08-31T02:27:58.825Z,39.6
2018-08-31T02:29:00.437Z,40.6
2018-08-31T02:30:01.835Z,40.6
2018-08-31T02:31:03.423Z,40.1
2018-08-31T02:32:05.005Z,40.1
2018-08-31T02:33:06.586Z,40.1
2018-08-31T02:34:08.139Z,40.6
2018-08-31T02:35:09.705Z,39.6
2018-08-31T02:36:11.277Z,40.1
2018-08-31T02:37:12.696Z,39.6
2018-08-31T02:38:14.257Z,39.6
2018-08-31T02:39:16.032Z,40.1
2018-08-31T02:40:17.903Z,39.1
2018-08-31T02:41:19.465Z,40.1
2018-08-31T02:42:21.017Z,39.6
2018-08-31T02:43:22.566Z,38.6
2018-08-31T02:44:24.148Z,39.6
2018-08-31T02:45:25.714Z,39.6
2018-08-31T02:46:27.275Z,39.6
2018-08-31T02:47:28.837Z,39.1
2018-08-31T02:48:30.400Z,40.1
2018-08-31T02:49:32.186Z,39.6
2018-08-31T02:50:33.763Z,39.1
2018-08-31T02:51:35.152Z,40.1
2018-08-31T02:52:36.686Z,39.6
2018-08-31T02:53:38.249Z,39.6
2018-08-31T02:54:39.823Z,39.6
2018-08-31T02:55:41.396Z,38.6
2018-08-31T02:56:42.966Z,39.1
2018-08-31T02:57:44.357Z,38.1
2018-08-31T02:58:45.927Z,39.1
2018-08-31T02:59:47.497Z,38.6
2018-08-31T03:00:49.057Z,38.6
2018-08-31T03:01:50.472Z,38.6
2018-08-31T03:02:52.064Z,39.6
2018-08-31T03:03:53.448Z,40.1
2018-08-31T03:04:55.025Z,38.6
2018-08-31T03:05:56.610Z,38.6
2018-08-31T03:06:58.182Z,39.1
2018-08-31T03:07:59.769Z,39.6
2018-08-31T03:09:01.336Z,38.6
2018-08-31T03:10:02.906Z,40.1
2018-08-31T03:11:04.242Z,38.6
2018-08-31T03:12:05.516Z,39.1
2018-08-31T03:13:07.140Z,39.1
2018-08-31T03:14:08.706Z,39.1
2018-08-31T03:15:10.108Z,39.1
2018-08-31T03:16:11.669Z,39.1
2018-08-31T03:17:13.227Z,38.6
2018-08-31T03:18:14.801Z,39.1
2018-08-31T03:19:16.382Z,38.6
2018-08-31T03:20:17.976Z,38.6
2018-08-31T03:21:19.673Z,38.6
2018-08-31T03:22:21.579Z,39.1
2018-08-31T03:23:23.146Z,39.1
2018-08-31T03:24:24.530Z,39.1
2018-08-31T03:25:26.092Z,38.6
2018-08-31T03:26:27.664Z,39.1
2018-08-31T03:27:29.289Z,39.1
2018-08-31T03:28:31.095Z,39.6
2018-08-31T03:29:32.905Z,39.1
2018-08-31T03:30:34.343Z,39.1
2018-08-31T03:31:35.952Z,39.1
2018-08-31T03:32:37.558Z,39.1
2018-08-31T03:33:39.139Z,39.1
2018-08-31T03:34:40.724Z,38.6
2018-08-31T03:35:42.347Z,38.6
2018-08-31T03:36:43.872Z,39.6
2018-08-31T03:37:45.548Z,39.1
2018-08-31T03:38:47.140Z,39.6
2018-08-31T03:39:48.573Z,40.6
2018-08-31T03:40:50.190Z,40.6
2018-08-31T03:41:51.780Z,40.6
2018-08-31T03:42:53.369Z,40.6
2018-08-31T03:43:54.946Z,39.6
2018-08-31T03:44:56.356Z,40.1
2018-08-31T03:45:57.784Z,40.1
2018-08-31T03:46:59.200Z,40.6
2018-08-31T03:48:00.763Z,40.1
2018-08-31T03:49:02.328Z,41.1
2018-08-31T03:50:03.904Z,40.6
2018-08-31T03:51:05.488Z,40.6
2018-08-31T03:52:07.117Z,41.1
2018-08-31T03:53:08.693Z,41.1
2018-08-31T03:54:10.295Z,40.6
2018-08-31T03:55:11.876Z,41.5
2018-08-31T03:56:13.434Z,41.1
2018-08-31T03:57:15.002Z,40.6
2018-08-31T03:58:16.585Z,40.6
2018-08-31T03:59:18.155Z,41.1
2018-08-31T04:00:19.715Z,40.6
2018-08-31T04:01:21.280Z,41.1
2018-08-31T04:02:22.843Z,41.5
2018-08-31T04:03:24.469Z,40.6
2018-08-31T04:04:26.059Z,41.1
2018-08-31T04:05:27.610Z,40.1
2018-08-31T04:06:29.185Z,40.6
2018-08-31T04:07:30.742Z,41.1
2018-08-31T04:08:32.404Z,41.1
2018-08-31T04:09:33.801Z,41.1
2018-08-31T04:10:35.364Z,41.1
2018-08-31T04:11:36.946Z,41.1
2018-08-31T04:12:38.516Z,41.1
2018-08-31T04:13:40.085Z,41.1
2018-08-31T04:14:41.664Z,40.6
2018-08-31T04:15:43.076Z,40.1
2018-08-31T04:16:44.649Z,40.6
2018-08-31T04:17:46.265Z,40.6
2018-08-31T04:18:47.863Z,40.6
2018-08-31T04:19:49.487Z,40.1
2018-08-31T04:20:50.902Z,41.1
2018-08-31T04:21:52.303Z,39.1
2018-08-31T04:22:53.893Z,40.1
2018-08-31T04:23:55.474Z,40.1
2018-08-31T04:24:56.706Z,39.6
2018-08-31T04:25:58.130Z,40.1
2018-08-31T04:26:59.365Z,40.1
2018-08-31T04:28:00.772Z,40.6
2018-08-31T04:29:02.189Z,40.1
2018-08-31T04:30:03.570Z,40.1
2018-08-31T04:31:05.139Z,40.1
2018-08-31T04:32:06.711Z,39.6
2018-08-31T04:33:08.298Z,40.6
2018-08-31T04:34:10.268Z,39.6
2018-08-31T04:35:12.175Z,40.1
2018-08-31T04:36:13.746Z,39.6
2018-08-31T04:37:15.173Z,39.1
2018-08-31T04:38:16.741Z,40.6
2018-08-31T04:39:18.312Z,39.6
2018-08-31T04:40:19.724Z,40.6
2018-08-31T04:41:20.956Z,39.1
2018-08-31T04:42:22.535Z,39.6
2018-08-31T04:43:24.105Z,40.1
2018-08-31T04:44:25.526Z,39.6
2018-08-31T04:45:26.986Z,39.1
2018-08-31T04:46:28.048Z,39.6
2018-08-31T04:47:29.465Z,39.1
2018-08-31T04:48:31.056Z,39.6
2018-08-31T04:49:32.454Z,39.1
2018-08-31T04:50:34.380Z,39.1
2018-08-31T04:51:35.788Z,39.6
2018-08-31T04:52:37.046Z,39.6
2018-08-31T04:53:38.617Z,39.6
2018-08-31T04:54:40.176Z,39.1
2018-08-31T04:55:41.804Z,39.1
2018-08-31T04:56:43.359Z,39.1
2018-08-31T04:57:44.947Z,39.1
2018-08-31T04:58:46.705Z,39.1
2018-08-31T04:59:47.851Z,39.1
2018-08-31T05:00:49.429Z,39.1
2018-08-31T05:01:50.664Z,39.1
2018-08-31T05:02:52.211Z,38.6
2018-08-31T05:03:53.793Z,39.1
2018-08-31T05:04:55.360Z,39.1
2018-08-31T05:05:56.980Z,38.6
2018-08-31T05:06:58.533Z,38.6
2018-08-31T05:08:00.095Z,39.1
2018-08-31T05:09:01.668Z,39.6
2018-08-31T05:10:03.228Z,38.6
2018-08-31T05:11:04.797Z,39.6
2018-08-31T05:12:06.363Z,38.1
2018-08-31T05:13:07.745Z,38.6
2018-08-31T05:14:09.328Z,39.1
2018-08-31T05:15:10.924Z,39.1
2018-08-31T05:16:13.029Z,38.6
2018-08-31T05:17:14.865Z,39.6
2018-08-31T05:18:16.441Z,39.6
2018-08-31T05:19:18.004Z,39.6
2018-08-31T05:20:19.575Z,39.6
2018-08-31T05:21:21.172Z,39.6
2018-08-31T05:22:22.980Z,39.1
2018-08-31T05:23:24.656Z,39.1
2018-08-31T05:24:26.268Z,40.1
2018-08-31T05:25:27.825Z,39.6
2018-08-31T05:26:29.398Z,39.1
2018-08-31T05:27:30.979Z,39.6
2018-08-31T05:28:33.171Z,40.6
2018-08-31T05:29:35.175Z,39.6
2018-08-31T05:30:36.565Z,40.1
2018-08-31T05:31:38.128Z,40.1
2018-08-31T05:32:39.684Z,41.1
2018-08-31T05:33:41.269Z,40.1
2018-08-31T05:34:42.685Z,41.1
2018-08-31T05:35:44.265Z,40.6
2018-08-31T05:36:45.852Z,40.6
2018-08-31T05:37:47.428Z,40.1
2018-08-31T05:38:48.975Z,41.1
2018-08-31T05:39:50.552Z,41.5
2018-08-31T05:40:52.144Z,41.1
2018-08-31T05:41:53.543Z,40.6
2018-08-31T05:42:55.100Z,40.6
2018-08-31T05:43:56.668Z,40.6
2018-08-31T05:44:58.236Z,41.1
2018-08-31T05:45:59.693Z,40.6
2018-08-31T05:47:01.253Z,41.1
2018-08-31T05:48:02.839Z,40.6
2018-08-31T05:49:04.425Z,40.6
2018-08-31T05:50:06.007Z,41.1
2018-08-31T05:51:07.621Z,41.1
2018-08-31T05:52:09.073Z,40.6
2018-08-31T05:53:10.733Z,41.1
2018-08-31T05:54:12.308Z,40.1
2018-08-31T05:55:13.873Z,41.1
2018-08-31T05:56:15.445Z,41.5
2018-08-31T05:57:17.014Z,41.1
2018-08-31T05:58:18.641Z,40.6
2018-08-31T05:59:20.199Z,41.5
2018-08-31T06:00:21.777Z,40.6
2018-08-31T06:01:23.335Z,41.1
2018-08-31T06:02:24.909Z,40.6
2018-08-31T06:03:26.475Z,40.6
2018-08-31T06:04:28.050Z,40.1
2018-08-31T06:05:29.298Z,40.6
2018-08-31T06:06:30.878Z,40.6
2018-08-31T06:07:32.449Z,39.6
2018-08-31T06:08:34.006Z,40.6
2018-08-31T06:09:35.579Z,40.1
2018-08-31T06:10:37.145Z,40.1
2018-08-31T06:11:38.695Z,40.6
2018-08-31T06:12:40.251Z,40.6
2018-08-31T06:13:41.835Z,41.1
2018-08-31T06:14:43.421Z,40.1
2018-08-31T06:15:44.990Z,40.6
2018-08-31T06:16:46.562Z,40.1
2018-08-31T06:17:48.132Z,40.1
2018-08-31T06:18:49.702Z,40.1
2018-08-31T06:19:51.104Z,39.6
2018-08-31T06:20:52.863Z,39.1
2018-08-31T06:21:54.520Z,39.6
2018-08-31T06:22:56.107Z,39.1
2018-08-31T06:23:57.679Z,39.6
2018-08-31T06:24:59.247Z,39.1
2018-08-31T06:26:00.827Z,39.6
2018-08-31T06:27:02.671Z,40.1
2018-08-31T06:28:04.425Z,39.1
2018-08-31T06:29:06.008Z,39.6
2018-08-31T06:30:07.438Z,40.6
2018-08-31T06:31:08.998Z,39.1
2018-08-31T06:32:10.559Z,39.6
2018-08-31T06:33:12.141Z,39.6
2018-08-31T06:34:13.726Z,39.1
2018-08-31T06:35:15.411Z,39.6
2018-08-31T06:36:17.202Z,39.6
2018-08-31T06:37:18.757Z,39.1
2018-08-31T06:38:20.343Z,39.1
2018-08-31T06:39:21.928Z,39.6
2018-08-31T06:40:23.513Z,39.1
2018-08-31T06:41:25.101Z,40.1
2018-08-31T06:42:26.522Z,39.6
2018-08-31T06:43:28.108Z,39.6
2018-08-31T06:44:29.664Z,39.1
2018-08-31T06:45:31.263Z,39.6
2018-08-31T06:46:32.844Z,39.6
2018-08-31T06:47:34.413Z,39.6
2018-08-31T06:48:35.983Z,38.6
2018-08-31T06:49:37.566Z,39.1
2018-08-31T06:50:39.159Z,39.6
2018-08-31T06:51:40.779Z,39.6
2018-08-31T06:52:42.356Z,39.6
2018-08-31T06:53:43.949Z,39.1
2018-08-31T06:54:45.516Z,39.1
2018-08-31T06:55:47.104Z,38.6
2018-08-31T06:56:48.695Z,38.6
2018-08-31T06:57:50.325Z,39.6
2018-08-31T06:58:51.900Z,38.6
2018-08-31T06:59:53.478Z,38.6
2018-08-31T07:00:55.065Z,38.6
2018-08-31T07:01:56.655Z,39.1
2018-08-31T07:02:58.220Z,39.1
2018-08-31T07:03:59.799Z,39.6
2018-08-31T07:05:01.449Z,39.6
2018-08-31T07:06:03.030Z,38.6
2018-08-31T07:07:04.608Z,39.1
2018-08-31T07:08:06.054Z,39.1
2018-08-31T07:09:07.619Z,38.6
2018-08-31T07:10:09.019Z,40.1
2018-08-31T07:11:10.583Z,39.6
2018-08-31T07:12:12.502Z,39.6
2018-08-31T07:13:14.234Z,39.6
2018-08-31T07:14:15.672Z,40.1
2018-08-31T07:15:17.145Z,39.6
2018-08-31T07:16:18.723Z,40.6
2018-08-31T07:17:20.320Z,41.1
2018-08-31T07:18:21.898Z,39.6
2018-08-31T07:19:23.758Z,41.1
2018-08-31T07:20:25.672Z,41.1
2018-08-31T07:21:27.249Z,41.1
2018-08-31T07:22:28.641Z,40.6
2018-08-31T07:23:30.208Z,41.1
2018-08-31T07:24:31.756Z,41.1
2018-08-31T07:25:33.345Z,41.1
2018-08-31T07:26:34.965Z,40.1
2018-08-31T07:27:36.460Z,41.1
2018-08-31T07:28:38.038Z,41.1
2018-08-31T07:29:39.610Z,40.6
2018-08-31T07:30:41.195Z,42
2018-08-31T07:31:42.757Z,41.1
2018-08-31T07:32:44.337Z,41.5
2018-08-31T07:33:45.919Z,41.1
2018-08-31T07:34:47.344Z,41.1
2018-08-31T07:35:49.211Z,40.6
2018-08-31T07:36:50.944Z,41.1
2018-08-31T07:37:52.541Z,40.6
2018-08-31T07:38:54.127Z,41.1
2018-08-31T07:39:55.746Z,41.1
2018-08-31T07:40:57.317Z,41.1
2018-08-31T07:41:58.889Z,41.5
2018-08-31T07:43:00.487Z,40.6
2018-08-31T07:44:01.907Z,40.6
2018-08-31T07:45:03.469Z,41.1
2018-08-31T07:46:05.057Z,40.6
2018-08-31T07:47:06.628Z,41.1
2018-08-31T07:48:08.210Z,40.6
2018-08-31T07:49:09.835Z,40.1
2018-08-31T07:50:11.396Z,40.6
2018-08-31T07:51:12.976Z,40.1
2018-08-31T07:52:14.547Z,40.1
2018-08-31T07:53:16.097Z,39.6
2018-08-31T07:54:17.518Z,39.6
2018-08-31T07:55:19.300Z,40.6
2018-08-31T07:56:20.529Z,40.1
2018-08-31T07:57:22.102Z,40.1
2018-08-31T07:58:23.695Z,39.6
2018-08-31T07:59:25.259Z,40.1
2018-08-31T08:00:26.665Z,39.6
2018-08-31T08:01:28.273Z,40.1
2018-08-31T08:02:29.699Z,40.1
2018-08-31T08:03:31.284Z,39.6
2018-08-31T08:04:32.856Z,40.1
2018-08-31T08:05:34.706Z,40.6
2018-08-31T08:06:36.439Z,39.6
2018-08-31T08:07:38.066Z,40.1
2018-08-31T08:08:39.311Z,39.6
2018-08-31T08:09:40.692Z,38.6
2018-08-31T08:10:42.259Z,40.1
2018-08-31T08:11:43.500Z,40.1
2018-08-31T08:12:45.066Z,40.6
2018-08-31T08:13:46.669Z,39.6
2018-08-31T08:14:48.750Z,39.1
2018-08-31T08:15:50.756Z,39.1
2018-08-31T08:16:52.186Z,39.1
2018-08-31T08:17:53.788Z,39.1
2018-08-31T08:18:55.329Z,39.1
2018-08-31T08:19:56.887Z,39.6
2018-08-31T08:20:58.469Z,39.6
2018-08-31T08:21:59.879Z,39.6
2018-08-31T08:23:01.446Z,39.1
2018-08-31T08:24:02.886Z,39.6
2018-08-31T08:25:04.492Z,39.6
2018-08-31T08:26:06.089Z,39.6
2018-08-31T08:27:07.488Z,39.1
2018-08-31T08:28:09.155Z,39.6
2018-08-31T08:29:10.729Z,38.6
2018-08-31T08:30:12.132Z,39.6
2018-08-31T08:31:13.523Z,39.1
2018-08-31T08:32:15.100Z,39.1
2018-08-31T08:33:16.666Z,38.6
2018-08-31T08:34:18.257Z,39.1
2018-08-31T08:35:19.842Z,39.6
2018-08-31T08:36:21.419Z,39.1
2018-08-31T08:37:23.022Z,39.6
2018-08-31T08:38:24.572Z,38.6
2018-08-31T08:39:26.149Z,39.1
2018-08-31T08:40:27.733Z,38.1
2018-08-31T08:41:29.131Z,39.1
2018-08-31T08:42:31.246Z,38.6
2018-08-31T08:43:33.196Z,38.6
2018-08-31T08:44:34.776Z,38.1
2018-08-31T08:45:36.374Z,38.1
2018-08-31T08:46:37.955Z,38.6
2018-08-31T08:47:39.516Z,39.1
2018-08-31T08:48:41.849Z,39.6
2018-08-31T08:49:44.136Z,38.6
2018-08-31T08:50:45.553Z,39.1
2018-08-31T08:51:47.113Z,38.1
2018-08-31T08:52:48.683Z,38.6
2018-08-31T08:53:50.097Z,38.6
2018-08-31T08:54:51.667Z,38.6
2018-08-31T08:55:53.282Z,38.6
2018-08-31T08:56:54.865Z,39.6
2018-08-31T08:57:56.442Z,38.6
2018-08-31T08:58:57.850Z,39.1
2018-08-31T08:59:59.466Z,38.6
2018-08-31T09:01:01.056Z,39.1
2018-08-31T09:02:02.630Z,40.1
2018-08-31T09:03:04.196Z,39.1
2018-08-31T09:04:05.764Z,40.1
2018-08-31T09:05:07.487Z,40.1
2018-08-31T09:06:09.113Z,40.6
2018-08-31T09:07:10.767Z,40.1
2018-08-31T09:08:12.380Z,40.1
2018-08-31T09:09:13.960Z,40.1
2018-08-31T09:10:15.546Z,40.1
2018-08-31T09:11:17.126Z,40.6
2018-08-31T09:12:18.931Z,41.1
2018-08-31T09:13:20.893Z,41.5
2018-08-31T09:14:22.463Z,41.1
2018-08-31T09:15:24.030Z,40.6
2018-08-31T09:16:25.604Z,41.1
2018-08-31T09:17:27.193Z,40.6
2018-08-31T09:18:29.175Z,41.5
2018-08-31T09:19:31.115Z,41.1
2018-08-31T09:20:32.698Z,40.1
2018-08-31T09:21:34.274Z,41.1
2018-08-31T09:22:35.506Z,41.1
2018-08-31T09:23:37.085Z,41.5
2018-08-31T09:24:39.091Z,41.5
2018-08-31T09:25:40.988Z,41.1
2018-08-31T09:26:42.552Z,41.5
2018-08-31T09:27:43.951Z,41.1
2018-08-31T09:28:45.509Z,41.1
2018-08-31T09:29:47.087Z,40.6
2018-08-31T09:30:48.667Z,41.1
2018-08-31T09:31:50.241Z,41.1
2018-08-31T09:32:51.651Z,40.6
2018-08-31T09:33:53.054Z,41.5
2018-08-31T09:34:54.628Z,41.1
2018-08-31T09:35:56.210Z,41.1
2018-08-31T09:36:57.806Z,41.1
2018-08-31T09:37:59.197Z,41.5
2018-08-31T09:39:00.800Z,40.6
2018-08-31T09:40:02.367Z,40.6
2018-08-31T09:41:03.946Z,40.1
2018-08-31T09:42:05.532Z,39.6
2018-08-31T09:43:06.941Z,40.6
2018-08-31T09:44:08.537Z,39.6
2018-08-31T09:45:10.126Z,39.1
2018-08-31T09:46:11.722Z,41.1
2018-08-31T09:47:13.144Z,41.1
2018-08-31T09:48:14.772Z,40.6
2018-08-31T09:49:16.386Z,40.1
2018-08-31T09:50:18.004Z,41.1
2018-08-31T09:51:19.574Z,40.1
2018-08-31T09:52:21.156Z,40.1
2018-08-31T09:53:22.756Z,39.1
2018-08-31T09:54:24.348Z,40.1
2018-08-31T09:55:25.918Z,40.1
2018-08-31T09:56:27.412Z,39.1
2018-08-31T09:57:29.391Z,39.1
2018-08-31T09:58:31.359Z,40.1
2018-08-31T09:59:32.930Z,40.1
2018-08-31T10:00:34.488Z,41.1
2018-08-31T10:01:36.060Z,40.6
2018-08-31T10:02:37.475Z,39.6
2018-08-31T10:03:39.084Z,39.6
2018-08-31T10:04:40.664Z,39.6
2018-08-31T10:05:41.937Z,39.6
2018-08-31T10:06:43.526Z,39.6
2018-08-31T10:07:45.098Z,40.1
2018-08-31T10:08:46.684Z,40.1
2018-08-31T10:09:48.317Z,39.1
2018-08-31T10:10:50.417Z,40.1
2018-08-31T10:11:52.455Z,39.1
2018-08-31T10:12:54.037Z,39.6
2018-08-31T10:13:55.641Z,40.1
2018-08-31T10:14:57.199Z,39.1
2018-08-31T10:15:58.763Z,39.1
2018-08-31T10:17:00.334Z,39.1
2018-08-31T10:18:01.904Z,38.6
2018-08-31T10:19:03.504Z,39.6
2018-08-31T10:20:05.125Z,38.6
2018-08-31T10:21:06.562Z,39.6
2018-08-31T10:22:07.988Z,39.1
2018-08-31T10:23:09.575Z,38.6
2018-08-31T10:24:11.157Z,38.6
2018-08-31T10:25:12.757Z,38.6
2018-08-31T10:26:14.507Z,38.1
2018-08-31T10:27:16.250Z,39.6
2018-08-31T10:28:32.540Z,38.6
2018-08-31T10:29:34.126Z,38.6
2018-08-31T10:30:35.573Z,38.6
2018-08-31T10:31:37.193Z,39.1
2018-08-31T10:32:38.602Z,39.1
2018-08-31T10:33:39.866Z,39.6
2018-08-31T10:34:41.455Z,39.6
2018-08-31T10:35:43.037Z,38.6
2018-08-31T10:36:44.614Z,39.1
2018-08-31T10:37:46.205Z,38.6
2018-08-31T10:38:47.778Z,39.1
2018-08-31T10:39:49.389Z,39.1
2018-08-31T10:40:50.650Z,38.6
2018-08-31T10:41:52.361Z,39.1
2018-08-31T10:42:53.772Z,39.1
2018-08-31T10:43:55.355Z,39.6
2018-08-31T10:44:56.910Z,39.6
2018-08-31T10:45:58.336Z,39.6
2018-08-31T10:46:59.914Z,39.1
2018-08-31T10:48:01.516Z,39.6
2018-08-31T10:49:03.094Z,39.6
2018-08-31T10:50:04.668Z,40.1
2018-08-31T10:51:06.075Z,40.1
2018-08-31T10:52:07.637Z,41.1
2018-08-31T10:53:09.195Z,40.1
2018-08-31T10:54:10.758Z,40.6
2018-08-31T10:55:12.326Z,40.6
2018-08-31T10:56:13.719Z,40.6
2018-08-31T10:57:15.287Z,40.1
2018-08-31T10:58:16.843Z,40.6
2018-08-31T10:59:18.272Z,41.1
2018-08-31T11:00:19.864Z,41.5
2018-08-31T11:01:21.443Z,41.1
2018-08-31T11:02:22.877Z,40.1
2018-08-31T11:03:24.522Z,41.1
2018-08-31T11:04:26.125Z,40.1
2018-08-31T11:05:27.731Z,41.1
2018-08-31T11:06:29.172Z,41.1
2018-08-31T11:07:30.822Z,41.1
2018-08-31T11:08:32.415Z,40.6
2018-08-31T11:09:33.916Z,41.1
2018-08-31T11:10:35.510Z,41.1
2018-08-31T11:11:37.248Z,40.6
2018-08-31T11:12:39.441Z,41.1
2018-08-31T11:13:41.312Z,41.1
2018-08-31T11:14:42.902Z,40.6
2018-08-31T11:15:44.476Z,40.6
2018-08-31T11:16:46.100Z,41.5
2018-08-31T11:17:47.711Z,40.6
2018-08-31T11:18:49.426Z,40.6
2018-08-31T11:19:51.076Z,41.1
2018-08-31T11:20:52.659Z,40.6
2018-08-31T11:21:54.227Z,40.6
2018-08-31T11:22:55.781Z,41.1
2018-08-31T11:23:57.348Z,41.5
2018-08-31T11:24:58.937Z,41.1
2018-08-31T11:26:00.541Z,41.1
2018-08-31T11:27:02.118Z,41.1
2018-08-31T11:28:03.689Z,40.6
2018-08-31T11:29:05.266Z,40.6
2018-08-31T11:30:06.696Z,40.1
2018-08-31T11:31:08.298Z,40.6
2018-08-31T11:32:09.845Z,40.6
2018-08-31T11:33:11.414Z,40.6
2018-08-31T11:34:12.990Z,41.1
2018-08-31T11:35:14.580Z,40.1
2018-08-31T11:36:16.148Z,41.1
2018-08-31T11:37:17.738Z,40.1
2018-08-31T11:38:19.306Z,39.6
2018-08-31T11:39:20.877Z,40.1
2018-08-31T11:40:22.455Z,40.1
2018-08-31T11:41:23.866Z,39.6
2018-08-31T11:42:25.446Z,39.1
2018-08-31T11:43:27.421Z,40.6
2018-08-31T11:44:29.341Z,39.6
2018-08-31T11:45:30.942Z,39.6
2018-08-31T11:46:32.526Z,39.6
2018-08-31T11:47:34.107Z,39.6
2018-08-31T11:48:35.684Z,39.6
2018-08-31T11:49:37.279Z,39.1
2018-08-31T11:50:38.856Z,40.1
2018-08-31T11:51:40.270Z,39.6
2018-08-31T11:52:41.895Z,39.6
2018-08-31T11:53:43.466Z,39.6
2018-08-31T11:54:45.038Z,39.6
2018-08-31T11:55:46.640Z,39.1
2018-08-31T11:56:48.245Z,39.1
2018-08-31T11:57:49.666Z,39.1
2018-08-31T11:58:51.276Z,39.6
2018-08-31T11:59:52.855Z,39.6
2018-08-31T12:00:54.515Z,38.6
2018-08-31T12:01:56.343Z,39.1
2018-08-31T12:02:58.036Z,39.1
2018-08-31T12:03:59.645Z,39.1
2018-08-31T12:05:01.221Z,38.6
2018-08-31T12:06:02.807Z,39.1
2018-08-31T12:07:04.591Z,39.1
2018-08-31T12:08:06.167Z,39.6
2018-08-31T12:09:07.765Z,39.6
2018-08-31T12:10:09.324Z,38.6
2018-08-31T12:11:10.969Z,38.6
2018-08-31T12:12:12.593Z,39.1
2018-08-31T12:13:14.199Z,38.6
2018-08-31T12:14:15.824Z,38.1
2018-08-31T12:15:17.399Z,39.1
2018-08-31T12:16:18.965Z,39.1
2018-08-31T12:17:20.389Z,38.6
2018-08-31T12:18:22.031Z,39.6
2018-08-31T12:19:23.642Z,39.1
2018-08-31T12:20:25.253Z,39.1
2018-08-31T12:21:26.865Z,38.6
2018-08-31T12:22:28.467Z,39.1
2018-08-31T12:23:30.057Z,39.1
2018-08-31T12:24:31.629Z,39.1
2018-08-31T12:25:33.236Z,39.6
2018-08-31T12:26:34.907Z,39.6
2018-08-31T12:27:36.333Z,38.6
2018-08-31T12:28:37.945Z,40.1
2018-08-31T12:29:39.532Z,38.6
2018-08-31T12:30:41.124Z,39.6
2018-08-31T12:31:42.695Z,40.1
2018-08-31T12:32:44.297Z,39.6
2018-08-31T12:33:45.858Z,40.1
2018-08-31T12:34:47.440Z,40.1
2018-08-31T12:35:49.034Z,40.1
2018-08-31T12:36:50.623Z,40.6
2018-08-31T12:37:52.202Z,40.1
2018-08-31T12:38:53.778Z,41.1
2018-08-31T12:39:55.359Z,40.1
2018-08-31T12:40:56.953Z,40.6
2018-08-31T12:41:58.545Z,41.5
2018-08-31T12:43:00.112Z,41.1
2018-08-31T12:44:01.806Z,41.1
2018-08-31T12:45:03.503Z,41.5
2018-08-31T12:46:05.087Z,40.1
2018-08-31T12:47:06.667Z,41.1
2018-08-31T12:48:08.238Z,41.5
2018-08-31T12:49:09.490Z,41.1
2018-08-31T12:50:11.069Z,41.5
2018-08-31T12:51:12.647Z,40.1
2018-08-31T12:52:14.216Z,40.6
2018-08-31T12:53:15.819Z,41.1
2018-08-31T12:54:17.413Z,41.1
2018-08-31T12:55:19.445Z,40.6
2018-08-31T12:56:21.009Z,39.6
2018-08-31T12:57:22.625Z,41.1
2018-08-31T12:58:24.069Z,41.1
2018-08-31T12:59:25.673Z,40.1
2018-08-31T13:00:27.099Z,41.1
2018-08-31T13:01:28.708Z,40.6
2018-08-31T13:02:30.320Z,40.1
2018-08-31T13:03:31.954Z,41.1
2018-08-31T13:04:33.548Z,40.1
2018-08-31T13:05:35.114Z,41.1
2018-08-31T13:06:36.713Z,40.1
2018-08-31T13:07:38.299Z,40.1
2018-08-31T13:08:39.882Z,40.6
2018-08-31T13:09:41.480Z,40.1
2018-08-31T13:10:43.044Z,40.1
2018-08-31T13:11:44.632Z,40.6
2018-08-31T13:12:46.216Z,41.1
2018-08-31T13:13:47.832Z,40.1
2018-08-31T13:14:49.238Z,39.6
2018-08-31T13:15:50.808Z,40.1
2018-08-31T13:16:52.364Z,40.1
2018-08-31T13:17:53.969Z,40.1
2018-08-31T13:18:55.566Z,40.1
2018-08-31T13:19:57.544Z,40.1
2018-08-31T13:20:59.472Z,40.6
2018-08-31T13:22:01.046Z,39.6
2018-08-31T13:23:02.642Z,39.6
2018-08-31T13:24:04.239Z,39.6
2018-08-31T13:25:05.786Z,40.6
2018-08-31T13:26:07.509Z,39.1
2018-08-31T13:27:09.145Z,40.1
2018-08-31T13:28:10.722Z,39.6
2018-08-31T13:29:12.285Z,40.1
2018-08-31T13:30:13.852Z,39.6
2018-08-31T13:31:15.882Z,39.6
2018-08-31T13:32:17.923Z,40.6
2018-08-31T13:33:19.335Z,40.6
2018-08-31T13:34:20.900Z,39.1
2018-08-31T13:35:22.487Z,39.6
2018-08-31T13:36:24.172Z,39.1
2018-08-31T13:37:25.762Z,40.1
2018-08-31T13:38:27.929Z,39.6
2018-08-31T13:39:29.745Z,39.6